sensor_id;sensor_type;location;lat;lon;timestamp;P1;durP1;ratioP1;P2;durP2;ratioP2
18159;SDS011;9205;52.032;4.314;2022-10-17T00:00:56;2.00;;;1.50;;
18159;SDS011;9205;52.032;4.314;2022-10-17T00:03:23;2.60;;;1.80;;
18159;SDS011;9205;52.032;4.314;2022-10-17T00:05:50;2.23;;;2.00;;
18159;SDS011;9205;52.032;4.314;2022-10-17T00:08:17;3.30;;;1.97;;
18159;SDS011;9205;52.032;4.314;2022-10-17T00:10:45;2.30;;;1.77;;
18159;SDS011;9205;52.032;4.314;2022-10-17T00:13:22;2.20;;;1.73;;
18159;SDS011;9205;52.032;4.314;2022-10-17T00:15:50;4.20;;;2.13;;
18159;SDS011;9205;52.032;4.314;2022-10-17T00:18:19;2.27;;;1.70;;
18159;SDS011;9205;52.032;4.314;2022-10-17T00:20:47;2.87;;;2.07;;
18159;SDS011;9205;52.032;4.314;2022-10-17T00:23:14;2.73;;;2.20;;
18159;SDS011;9205;52.032;4.314;2022-10-17T00:25:41;2.70;;;1.77;;
18159;SDS011;9205;52.032;4.314;2022-10-17T00:28:08;3.20;;;2.03;;
18159;SDS011;9205;52.032;4.314;2022-10-17T00:30:36;2.33;;;1.93;;
18159;SDS011;9205;52.032;4.314;2022-10-17T00:33:04;5.27;;;2.30;;
18159;SDS011;9205;52.032;4.314;2022-10-17T00:35:34;5.30;;;2.70;;
18159;SDS011;9205;52.032;4.314;2022-10-17T00:38:01;5.30;;;2.60;;
18159;SDS011;9205;52.032;4.314;2022-10-17T00:40:28;3.90;;;2.20;;
18159;SDS011;9205;52.032;4.314;2022-10-17T00:42:55;2.80;;;2.43;;
18159;SDS011;9205;52.032;4.314;2022-10-17T00:45:23;3.93;;;2.47;;
18159;SDS011;9205;52.032;4.314;2022-10-17T00:47:53;4.07;;;2.80;;
18159;SDS011;9205;52.032;4.314;2022-10-17T00:50:26;4.27;;;2.23;;
18159;SDS011;9205;52.032;4.314;2022-10-17T00:52:56;3.40;;;2.50;;
18159;SDS011;9205;52.032;4.314;2022-10-17T00:55:29;6.70;;;2.60;;
18159;SDS011;9205;52.032;4.314;2022-10-17T00:58:01;3.67;;;2.50;;
18159;SDS011;9205;52.032;4.314;2022-10-17T01:00:32;3.63;;;2.37;;
18159;SDS011;9205;52.032;4.314;2022-10-17T01:03:05;3.90;;;2.50;;
18159;SDS011;9205;52.032;4.314;2022-10-17T01:05:33;4.20;;;2.47;;
18159;SDS011;9205;52.032;4.314;2022-10-17T01:08:02;3.80;;;2.80;;
18159;SDS011;9205;52.032;4.314;2022-10-17T01:10:33;2.73;;;2.30;;
18159;SDS011;9205;52.032;4.314;2022-10-17T01:13:16;3.33;;;2.60;;
18159;SDS011;9205;52.032;4.314;2022-10-17T01:15:55;4.80;;;2.93;;
18159;SDS011;9205;52.032;4.314;2022-10-17T01:18:37;4.17;;;2.77;;
18159;SDS011;9205;52.032;4.314;2022-10-17T01:21:23;3.90;;;2.50;;
18159;SDS011;9205;52.032;4.314;2022-10-17T01:30:53;4.10;;;3.10;;
18159;SDS011;9205;52.032;4.314;2022-10-17T01:33:31;4.60;;;3.20;;
18159;SDS011;9205;52.032;4.314;2022-10-17T01:36:23;5.87;;;3.50;;
18159;SDS011;9205;52.032;4.314;2022-10-17T01:39:14;5.13;;;3.30;;
18159;SDS011;9205;52.032;4.314;2022-10-17T01:41:50;5.67;;;3.30;;
18159;SDS011;9205;52.032;4.314;2022-10-17T01:44:28;3.83;;;2.83;;
18159;SDS011;9205;52.032;4.314;2022-10-17T01:47:05;7.57;;;3.60;;
18159;SDS011;9205;52.032;4.314;2022-10-17T01:49:38;5.17;;;3.37;;
18159;SDS011;9205;52.032;4.314;2022-10-17T01:52:09;3.93;;;3.17;;
18159;SDS011;9205;52.032;4.314;2022-10-17T01:54:44;5.33;;;2.97;;
18159;SDS011;9205;52.032;4.314;2022-10-17T01:57:17;5.27;;;3.70;;
18159;SDS011;9205;52.032;4.314;2022-10-17T01:59:57;4.83;;;3.40;;
18159;SDS011;9205;52.032;4.314;2022-10-17T02:02:27;4.93;;;3.10;;
18159;SDS011;9205;52.032;4.314;2022-10-17T02:04:56;5.77;;;3.57;;
18159;SDS011;9205;52.032;4.314;2022-10-17T02:07:23;4.67;;;3.40;;
18159;SDS011;9205;52.032;4.314;2022-10-17T02:09:51;7.40;;;3.57;;
18159;SDS011;9205;52.032;4.314;2022-10-17T02:12:23;5.57;;;3.40;;
18159;SDS011;9205;52.032;4.314;2022-10-17T02:15:22;4.97;;;3.30;;
18159;SDS011;9205;52.032;4.314;2022-10-17T02:18:18;5.43;;;3.30;;
18159;SDS011;9205;52.032;4.314;2022-10-17T02:21:06;5.33;;;3.23;;
18159;SDS011;9205;52.032;4.314;2022-10-17T02:23:42;6.30;;;3.50;;
18159;SDS011;9205;52.032;4.314;2022-10-17T02:26:18;3.87;;;3.10;;
18159;SDS011;9205;52.032;4.314;2022-10-17T02:28:54;6.40;;;3.37;;
18159;SDS011;9205;52.032;4.314;2022-10-17T02:31:34;4.67;;;3.27;;
18159;SDS011;9205;52.032;4.314;2022-10-17T02:34:08;5.37;;;3.50;;
18159;SDS011;9205;52.032;4.314;2022-10-17T02:36:46;4.40;;;3.20;;
18159;SDS011;9205;52.032;4.314;2022-10-17T02:39:18;5.20;;;3.47;;
18159;SDS011;9205;52.032;4.314;2022-10-17T02:41:48;7.47;;;3.50;;
18159;SDS011;9205;52.032;4.314;2022-10-17T02:44:19;5.53;;;3.33;;
18159;SDS011;9205;52.032;4.314;2022-10-17T02:46:50;6.03;;;3.33;;
18159;SDS011;9205;52.032;4.314;2022-10-17T02:49:29;6.53;;;3.37;;
18159;SDS011;9205;52.032;4.314;2022-10-17T02:52:04;5.97;;;3.43;;
18159;SDS011;9205;52.032;4.314;2022-10-17T02:54:40;7.17;;;3.33;;
18159;SDS011;9205;52.032;4.314;2022-10-17T02:57:15;5.23;;;3.40;;
18159;SDS011;9205;52.032;4.314;2022-10-17T02:59:50;5.57;;;3.47;;
18159;SDS011;9205;52.032;4.314;2022-10-17T03:02:18;5.23;;;3.67;;
18159;SDS011;9205;52.032;4.314;2022-10-17T03:04:47;4.90;;;3.53;;
18159;SDS011;9205;52.032;4.314;2022-10-17T03:07:14;6.77;;;3.90;;
18159;SDS011;9205;52.032;4.314;2022-10-17T03:09:42;6.33;;;3.50;;
18159;SDS011;9205;52.032;4.314;2022-10-17T03:12:09;5.43;;;3.70;;
18159;SDS011;9205;52.032;4.314;2022-10-17T03:14:36;6.63;;;3.77;;
18159;SDS011;9205;52.032;4.314;2022-10-17T03:17:03;4.57;;;3.30;;
18159;SDS011;9205;52.032;4.314;2022-10-17T03:19:31;5.60;;;3.87;;
18159;SDS011;9205;52.032;4.314;2022-10-17T03:21:59;6.87;;;3.70;;
18159;SDS011;9205;52.032;4.314;2022-10-17T03:24:28;5.77;;;3.43;;
18159;SDS011;9205;52.032;4.314;2022-10-17T03:26:55;4.77;;;3.20;;
18159;SDS011;9205;52.032;4.314;2022-10-17T03:29:23;6.83;;;3.53;;
18159;SDS011;9205;52.032;4.314;2022-10-17T03:31:52;6.23;;;3.37;;
18159;SDS011;9205;52.032;4.314;2022-10-17T03:34:19;10.17;;;3.13;;
18159;SDS011;9205;52.032;4.314;2022-10-17T03:36:47;5.77;;;3.73;;
18159;SDS011;9205;52.032;4.314;2022-10-17T03:39:16;5.27;;;3.50;;
18159;SDS011;9205;52.032;4.314;2022-10-17T03:41:43;5.77;;;3.37;;
18159;SDS011;9205;52.032;4.314;2022-10-17T03:44:10;4.93;;;3.47;;
18159;SDS011;9205;52.032;4.314;2022-10-17T03:46:38;6.20;;;3.30;;
18159;SDS011;9205;52.032;4.314;2022-10-17T03:49:05;5.10;;;3.40;;
18159;SDS011;9205;52.032;4.314;2022-10-17T03:51:34;7.70;;;3.43;;
18159;SDS011;9205;52.032;4.314;2022-10-17T03:54:06;4.93;;;3.40;;
18159;SDS011;9205;52.032;4.314;2022-10-17T03:56:35;4.50;;;3.30;;
18159;SDS011;9205;52.032;4.314;2022-10-17T03:59:06;4.50;;;2.90;;
18159;SDS011;9205;52.032;4.314;2022-10-17T04:01:38;6.10;;;3.23;;
18159;SDS011;9205;52.032;4.314;2022-10-17T04:04:06;4.73;;;3.40;;
18159;SDS011;9205;52.032;4.314;2022-10-17T04:06:35;5.33;;;3.33;;
18159;SDS011;9205;52.032;4.314;2022-10-17T04:09:04;4.67;;;3.17;;
18159;SDS011;9205;52.032;4.314;2022-10-17T04:11:43;5.53;;;3.20;;
18159;SDS011;9205;52.032;4.314;2022-10-17T04:14:11;4.97;;;3.33;;
18159;SDS011;9205;52.032;4.314;2022-10-17T04:16:40;4.53;;;3.13;;
18159;SDS011;9205;52.032;4.314;2022-10-17T04:19:12;4.40;;;2.83;;
18159;SDS011;9205;52.032;4.314;2022-10-17T04:21:43;6.17;;;3.33;;
18159;SDS011;9205;52.032;4.314;2022-10-17T04:24:12;5.07;;;3.20;;
18159;SDS011;9205;52.032;4.314;2022-10-17T04:26:46;4.77;;;3.37;;
18159;SDS011;9205;52.032;4.314;2022-10-17T04:29:16;5.00;;;3.60;;
18159;SDS011;9205;52.032;4.314;2022-10-17T04:31:46;5.20;;;3.20;;
18159;SDS011;9205;52.032;4.314;2022-10-17T04:34:21;4.87;;;3.37;;
18159;SDS011;9205;52.032;4.314;2022-10-17T04:36:49;6.03;;;3.43;;
18159;SDS011;9205;52.032;4.314;2022-10-17T04:39:17;5.40;;;3.43;;
18159;SDS011;9205;52.032;4.314;2022-10-17T04:41:46;5.80;;;3.10;;
18159;SDS011;9205;52.032;4.314;2022-10-17T04:44:14;5.47;;;3.33;;
18159;SDS011;9205;52.032;4.314;2022-10-17T04:46:47;6.63;;;3.23;;
18159;SDS011;9205;52.032;4.314;2022-10-17T04:49:14;5.53;;;3.20;;
18159;SDS011;9205;52.032;4.314;2022-10-17T04:51:44;5.50;;;3.30;;
18159;SDS011;9205;52.032;4.314;2022-10-17T04:54:21;5.53;;;3.10;;
18159;SDS011;9205;52.032;4.314;2022-10-17T04:56:57;4.57;;;3.17;;
18159;SDS011;9205;52.032;4.314;2022-10-17T04:59:24;5.20;;;3.30;;
18159;SDS011;9205;52.032;4.314;2022-10-17T05:02:03;5.23;;;3.37;;
18159;SDS011;9205;52.032;4.314;2022-10-17T05:04:32;3.87;;;3.10;;
18159;SDS011;9205;52.032;4.314;2022-10-17T05:06:59;4.90;;;3.20;;
18159;SDS011;9205;52.032;4.314;2022-10-17T05:09:40;5.50;;;3.80;;
18159;SDS011;9205;52.032;4.314;2022-10-17T05:12:08;5.33;;;3.40;;
18159;SDS011;9205;52.032;4.314;2022-10-17T05:14:37;4.53;;;3.10;;
18159;SDS011;9205;52.032;4.314;2022-10-17T05:17:05;6.37;;;3.43;;
18159;SDS011;9205;52.032;4.314;2022-10-17T05:19:33;4.70;;;3.27;;
18159;SDS011;9205;52.032;4.314;2022-10-17T05:22:00;6.30;;;3.50;;
18159;SDS011;9205;52.032;4.314;2022-10-17T05:24:27;6.87;;;3.20;;
18159;SDS011;9205;52.032;4.314;2022-10-17T05:26:55;7.00;;;3.87;;
18159;SDS011;9205;52.032;4.314;2022-10-17T05:29:23;4.83;;;3.53;;
18159;SDS011;9205;52.032;4.314;2022-10-17T05:31:59;5.47;;;3.40;;
18159;SDS011;9205;52.032;4.314;2022-10-17T05:34:26;5.50;;;3.33;;
18159;SDS011;9205;52.032;4.314;2022-10-17T05:36:53;6.47;;;3.50;;
18159;SDS011;9205;52.032;4.314;2022-10-17T05:39:22;4.93;;;3.07;;
18159;SDS011;9205;52.032;4.314;2022-10-17T05:41:50;4.60;;;3.10;;
18159;SDS011;9205;52.032;4.314;2022-10-17T05:44:17;4.57;;;3.10;;
18159;SDS011;9205;52.032;4.314;2022-10-17T05:46:52;5.37;;;3.23;;
18159;SDS011;9205;52.032;4.314;2022-10-17T05:49:21;4.70;;;3.03;;
18159;SDS011;9205;52.032;4.314;2022-10-17T05:51:48;7.93;;;3.13;;
18159;SDS011;9205;52.032;4.314;2022-10-17T05:54:16;5.00;;;3.03;;
18159;SDS011;9205;52.032;4.314;2022-10-17T05:56:44;5.43;;;3.17;;
18159;SDS011;9205;52.032;4.314;2022-10-17T05:59:11;4.80;;;3.17;;
18159;SDS011;9205;52.032;4.314;2022-10-17T06:01:49;5.33;;;3.20;;
18159;SDS011;9205;52.032;4.314;2022-10-17T06:04:18;5.60;;;3.30;;
18159;SDS011;9205;52.032;4.314;2022-10-17T06:06:45;6.53;;;2.83;;
18159;SDS011;9205;52.032;4.314;2022-10-17T06:09:12;4.80;;;3.30;;
18159;SDS011;9205;52.032;4.314;2022-10-17T06:11:43;5.83;;;3.17;;
18159;SDS011;9205;52.032;4.314;2022-10-17T06:14:11;5.33;;;3.20;;
18159;SDS011;9205;52.032;4.314;2022-10-17T06:16:40;7.90;;;3.53;;
18159;SDS011;9205;52.032;4.314;2022-10-17T06:19:08;5.87;;;3.70;;
18159;SDS011;9205;52.032;4.314;2022-10-17T06:21:37;5.27;;;3.23;;
18159;SDS011;9205;52.032;4.314;2022-10-17T06:24:09;4.00;;;3.00;;
18159;SDS011;9205;52.032;4.314;2022-10-17T06:26:39;4.20;;;3.17;;
18159;SDS011;9205;52.032;4.314;2022-10-17T06:29:08;6.93;;;3.70;;
18159;SDS011;9205;52.032;4.314;2022-10-17T06:31:41;6.90;;;3.30;;
18159;SDS011;9205;52.032;4.314;2022-10-17T06:34:09;5.33;;;3.53;;
18159;SDS011;9205;52.032;4.314;2022-10-17T06:36:40;6.40;;;3.33;;
18159;SDS011;9205;52.032;4.314;2022-10-17T06:39:08;6.47;;;4.00;;
18159;SDS011;9205;52.032;4.314;2022-10-17T06:41:40;7.17;;;3.97;;
18159;SDS011;9205;52.032;4.314;2022-10-17T06:44:09;5.23;;;3.30;;
18159;SDS011;9205;52.032;4.314;2022-10-17T06:47:15;5.70;;;3.47;;
18159;SDS011;9205;52.032;4.314;2022-10-17T06:49:42;7.43;;;3.70;;
18159;SDS011;9205;52.032;4.314;2022-10-17T06:52:20;5.43;;;3.47;;
18159;SDS011;9205;52.032;4.314;2022-10-17T06:55:10;4.80;;;3.50;;
18159;SDS011;9205;52.032;4.314;2022-10-17T06:58:01;6.03;;;3.47;;
18159;SDS011;9205;52.032;4.314;2022-10-17T07:00:46;5.87;;;3.80;;
18159;SDS011;9205;52.032;4.314;2022-10-17T07:03:15;5.47;;;3.70;;
18159;SDS011;9205;52.032;4.314;2022-10-17T07:05:42;4.87;;;3.23;;
18159;SDS011;9205;52.032;4.314;2022-10-17T07:08:18;5.40;;;3.50;;
18159;SDS011;9205;52.032;4.314;2022-10-17T07:10:45;4.83;;;3.30;;
18159;SDS011;9205;52.032;4.314;2022-10-17T07:13:13;7.67;;;3.90;;
18159;SDS011;9205;52.032;4.314;2022-10-17T07:15:40;5.33;;;3.50;;
18159;SDS011;9205;52.032;4.314;2022-10-17T07:18:07;5.27;;;3.27;;
18159;SDS011;9205;52.032;4.314;2022-10-17T07:20:35;5.20;;;3.70;;
18159;SDS011;9205;52.032;4.314;2022-10-17T07:23:03;6.93;;;3.73;;
18159;SDS011;9205;52.032;4.314;2022-10-17T07:25:32;5.13;;;3.77;;
18159;SDS011;9205;52.032;4.314;2022-10-17T07:28:04;8.27;;;3.80;;
18159;SDS011;9205;52.032;4.314;2022-10-17T07:30:32;5.93;;;3.60;;
18159;SDS011;9205;52.032;4.314;2022-10-17T07:33:04;6.27;;;3.80;;
18159;SDS011;9205;52.032;4.314;2022-10-17T07:35:38;4.93;;;3.60;;
18159;SDS011;9205;52.032;4.314;2022-10-17T07:38:06;5.33;;;3.07;;
18159;SDS011;9205;52.032;4.314;2022-10-17T07:40:35;6.17;;;3.80;;
18159;SDS011;9205;52.032;4.314;2022-10-17T07:43:03;5.37;;;3.23;;
18159;SDS011;9205;52.032;4.314;2022-10-17T07:45:30;5.70;;;3.63;;
18159;SDS011;9205;52.032;4.314;2022-10-17T07:47:57;7.73;;;3.63;;
18159;SDS011;9205;52.032;4.314;2022-10-17T07:50:25;4.97;;;3.47;;
18159;SDS011;9205;52.032;4.314;2022-10-17T07:52:52;5.07;;;3.23;;
18159;SDS011;9205;52.032;4.314;2022-10-17T07:55:19;4.77;;;3.60;;
18159;SDS011;9205;52.032;4.314;2022-10-17T07:57:47;7.97;;;3.47;;
18159;SDS011;9205;52.032;4.314;2022-10-17T08:00:14;6.93;;;3.57;;
18159;SDS011;9205;52.032;4.314;2022-10-17T08:02:43;6.03;;;3.57;;
18159;SDS011;9205;52.032;4.314;2022-10-17T08:05:10;5.17;;;3.10;;
18159;SDS011;9205;52.032;4.314;2022-10-17T08:07:40;5.03;;;3.50;;
18159;SDS011;9205;52.032;4.314;2022-10-17T08:10:11;5.93;;;3.40;;
18159;SDS011;9205;52.032;4.314;2022-10-17T08:12:40;5.57;;;3.53;;
18159;SDS011;9205;52.032;4.314;2022-10-17T08:15:09;6.83;;;3.40;;
18159;SDS011;9205;52.032;4.314;2022-10-17T08:17:37;6.10;;;3.03;;
18159;SDS011;9205;52.032;4.314;2022-10-17T08:20:04;4.73;;;3.20;;
18159;SDS011;9205;52.032;4.314;2022-10-17T08:22:32;6.00;;;3.53;;
18159;SDS011;9205;52.032;4.314;2022-10-17T08:25:00;5.93;;;3.70;;
18159;SDS011;9205;52.032;4.314;2022-10-17T08:27:27;5.17;;;3.33;;
18159;SDS011;9205;52.032;4.314;2022-10-17T08:29:54;5.00;;;3.20;;
18159;SDS011;9205;52.032;4.314;2022-10-17T08:32:24;5.10;;;3.50;;
18159;SDS011;9205;52.032;4.314;2022-10-17T08:34:54;6.00;;;3.40;;
18159;SDS011;9205;52.032;4.314;2022-10-17T08:37:22;4.63;;;3.27;;
18159;SDS011;9205;52.032;4.314;2022-10-17T08:39:49;5.43;;;3.53;;
18159;SDS011;9205;52.032;4.314;2022-10-17T08:42:23;4.97;;;3.20;;
18159;SDS011;9205;52.032;4.314;2022-10-17T08:45:10;5.20;;;3.33;;
18159;SDS011;9205;52.032;4.314;2022-10-17T08:47:48;5.83;;;3.40;;
18159;SDS011;9205;52.032;4.314;2022-10-17T08:50:25;4.83;;;2.90;;
18159;SDS011;9205;52.032;4.314;2022-10-17T08:53:02;7.03;;;3.03;;
18159;SDS011;9205;52.032;4.314;2022-10-17T08:55:38;5.13;;;3.07;;
18159;SDS011;9205;52.032;4.314;2022-10-17T08:58:14;3.80;;;2.90;;
18159;SDS011;9205;52.032;4.314;2022-10-17T09:00:48;6.20;;;3.57;;
18159;SDS011;9205;52.032;4.314;2022-10-17T09:06:25;5.17;;;3.10;;
18159;SDS011;9205;52.032;4.314;2022-10-17T09:09:02;5.23;;;3.37;;
18159;SDS011;9205;52.032;4.314;2022-10-17T09:11:50;5.00;;;3.20;;
18159;SDS011;9205;52.032;4.314;2022-10-17T09:14:37;5.00;;;2.90;;
18159;SDS011;9205;52.032;4.314;2022-10-17T09:17:35;6.00;;;3.10;;
18159;SDS011;9205;52.032;4.314;2022-10-17T09:20:18;5.73;;;3.00;;
18159;SDS011;9205;52.032;4.314;2022-10-17T09:22:50;3.60;;;2.93;;
18159;SDS011;9205;52.032;4.314;2022-10-17T09:25:23;7.00;;;2.87;;
18159;SDS011;9205;52.032;4.314;2022-10-17T09:28:02;5.30;;;3.10;;
18159;SDS011;9205;52.032;4.314;2022-10-17T09:30:39;6.30;;;2.80;;
18159;SDS011;9205;52.032;4.314;2022-10-17T09:33:15;4.43;;;2.67;;
18159;SDS011;9205;52.032;4.314;2022-10-17T09:35:46;5.53;;;2.90;;
18159;SDS011;9205;52.032;4.314;2022-10-17T09:38:16;6.23;;;3.03;;
18159;SDS011;9205;52.032;4.314;2022-10-17T09:40:48;5.30;;;2.70;;
18159;SDS011;9205;52.032;4.314;2022-10-17T09:43:21;4.20;;;2.77;;
18159;SDS011;9205;52.032;4.314;2022-10-17T09:45:58;3.43;;;2.30;;
18159;SDS011;9205;52.032;4.314;2022-10-17T09:48:34;4.07;;;2.60;;
18159;SDS011;9205;52.032;4.314;2022-10-17T09:51:11;3.13;;;2.10;;
18159;SDS011;9205;52.032;4.314;2022-10-17T09:53:40;3.27;;;2.10;;
18159;SDS011;9205;52.032;4.314;2022-10-17T09:56:13;4.67;;;2.47;;
18159;SDS011;9205;52.032;4.314;2022-10-17T09:58:43;6.30;;;2.57;;
18159;SDS011;9205;52.032;4.314;2022-10-17T10:01:19;3.20;;;2.20;;
18159;SDS011;9205;52.032;4.314;2022-10-17T10:06:38;3.93;;;2.53;;
18159;SDS011;9205;52.032;4.314;2022-10-17T10:09:16;3.83;;;2.70;;
18159;SDS011;9205;52.032;4.314;2022-10-17T10:11:50;3.30;;;2.60;;
18159;SDS011;9205;52.032;4.314;2022-10-17T10:14:21;4.67;;;2.87;;
18159;SDS011;9205;52.032;4.314;2022-10-17T10:16:57;2.40;;;2.20;;
18159;SDS011;9205;52.032;4.314;2022-10-17T10:19:27;3.10;;;2.17;;
18159;SDS011;9205;52.032;4.314;2022-10-17T10:21:58;4.40;;;2.30;;
18159;SDS011;9205;52.032;4.314;2022-10-17T10:24:28;2.43;;;1.93;;
18159;SDS011;9205;52.032;4.314;2022-10-17T10:26:57;3.30;;;2.00;;
18159;SDS011;9205;52.032;4.314;2022-10-17T10:29:29;3.43;;;1.80;;
18159;SDS011;9205;52.032;4.314;2022-10-17T10:32:06;2.50;;;1.73;;
18159;SDS011;9205;52.032;4.314;2022-10-17T10:34:43;2.20;;;1.67;;
18159;SDS011;9205;52.032;4.314;2022-10-17T10:37:18;1.80;;;1.30;;
18159;SDS011;9205;52.032;4.314;2022-10-17T10:39:49;3.80;;;1.50;;
18159;SDS011;9205;52.032;4.314;2022-10-17T10:42:20;1.67;;;1.50;;
18159;SDS011;9205;52.032;4.314;2022-10-17T10:44:53;4.73;;;1.70;;
18159;SDS011;9205;52.032;4.314;2022-10-17T10:47:27;3.33;;;1.80;;
18159;SDS011;9205;52.032;4.314;2022-10-17T10:50:06;4.40;;;1.80;;
18159;SDS011;9205;52.032;4.314;2022-10-17T10:52:53;2.70;;;1.80;;
18159;SDS011;9205;52.032;4.314;2022-10-17T10:55:39;1.70;;;1.43;;
18159;SDS011;9205;52.032;4.314;2022-10-17T10:58:18;1.50;;;1.30;;
18159;SDS011;9205;52.032;4.314;2022-10-17T11:00:58;1.87;;;1.50;;
18159;SDS011;9205;52.032;4.314;2022-10-17T11:03:33;1.97;;;1.27;;
18159;SDS011;9205;52.032;4.314;2022-10-17T11:06:10;1.80;;;1.53;;
18159;SDS011;9205;52.032;4.314;2022-10-17T11:08:46;3.17;;;1.20;;
18159;SDS011;9205;52.032;4.314;2022-10-17T11:11:22;1.93;;;1.40;;
18159;SDS011;9205;52.032;4.314;2022-10-17T11:13:57;1.67;;;1.10;;
18159;SDS011;9205;52.032;4.314;2022-10-17T11:16:31;1.40;;;1.07;;
18159;SDS011;9205;52.032;4.314;2022-10-17T11:19:07;1.57;;;1.20;;
18159;SDS011;9205;52.032;4.314;2022-10-17T11:21:42;1.73;;;1.20;;
18159;SDS011;9205;52.032;4.314;2022-10-17T11:24:23;2.80;;;1.60;;
18159;SDS011;9205;52.032;4.314;2022-10-17T11:26:57;4.03;;;1.70;;
18159;SDS011;9205;52.032;4.314;2022-10-17T11:29:29;2.70;;;1.77;;
18159;SDS011;9205;52.032;4.314;2022-10-17T11:32:00;1.43;;;1.30;;
18159;SDS011;9205;52.032;4.314;2022-10-17T11:34:38;4.13;;;1.50;;
18159;SDS011;9205;52.032;4.314;2022-10-17T11:37:13;1.90;;;1.53;;
18159;SDS011;9205;52.032;4.314;2022-10-17T11:39:49;2.60;;;1.60;;
18159;SDS011;9205;52.032;4.314;2022-10-17T11:42:22;4.07;;;1.97;;
18159;SDS011;9205;52.032;4.314;2022-10-17T11:44:56;3.17;;;1.53;;
18159;SDS011;9205;52.032;4.314;2022-10-17T11:47:31;3.77;;;1.70;;
18159;SDS011;9205;52.032;4.314;2022-10-17T11:50:15;2.20;;;1.60;;
18159;SDS011;9205;52.032;4.314;2022-10-17T11:52:49;2.07;;;1.53;;
18159;SDS011;9205;52.032;4.314;2022-10-17T11:55:24;2.30;;;1.50;;
18159;SDS011;9205;52.032;4.314;2022-10-17T11:57:56;1.90;;;1.43;;
18159;SDS011;9205;52.032;4.314;2022-10-17T12:00:50;2.00;;;1.50;;
18159;SDS011;9205;52.032;4.314;2022-10-17T12:03:28;2.87;;;1.50;;
18159;SDS011;9205;52.032;4.314;2022-10-17T12:06:13;3.80;;;1.70;;
18159;SDS011;9205;52.032;4.314;2022-10-17T12:08:51;1.27;;;1.17;;
18159;SDS011;9205;52.032;4.314;2022-10-17T12:11:32;3.50;;;1.77;;
18159;SDS011;9205;52.032;4.314;2022-10-17T12:14:34;2.07;;;1.60;;
18159;SDS011;9205;52.032;4.314;2022-10-17T12:20:16;1.63;;;1.50;;
18159;SDS011;9205;52.032;4.314;2022-10-17T12:22:58;1.93;;;1.47;;
18159;SDS011;9205;52.032;4.314;2022-10-17T12:25:48;1.70;;;1.30;;
18159;SDS011;9205;52.032;4.314;2022-10-17T12:28:20;1.93;;;1.40;;
18159;SDS011;9205;52.032;4.314;2022-10-17T12:30:55;2.63;;;1.40;;
18159;SDS011;9205;52.032;4.314;2022-10-17T12:33:30;1.80;;;1.37;;
18159;SDS011;9205;52.032;4.314;2022-10-17T12:42:30;3.27;;;1.43;;
18159;SDS011;9205;52.032;4.314;2022-10-17T12:51:28;4.13;;;1.40;;
18159;SDS011;9205;52.032;4.314;2022-10-17T12:54:48;1.53;;;1.30;;
18159;SDS011;9205;52.032;4.314;2022-10-17T12:57:24;2.37;;;1.10;;
18159;SDS011;9205;52.032;4.314;2022-10-17T13:00:01;3.00;;;1.50;;
18159;SDS011;9205;52.032;4.314;2022-10-17T13:02:38;2.77;;;1.60;;
18159;SDS011;9205;52.032;4.314;2022-10-17T13:05:10;2.07;;;1.53;;
18159;SDS011;9205;52.032;4.314;2022-10-17T13:07:43;1.87;;;1.50;;
18159;SDS011;9205;52.032;4.314;2022-10-17T13:10:22;4.17;;;1.47;;
18159;SDS011;9205;52.032;4.314;2022-10-17T13:12:53;2.53;;;1.40;;
18159;SDS011;9205;52.032;4.314;2022-10-17T13:15:34;3.90;;;1.37;;
18159;SDS011;9205;52.032;4.314;2022-10-17T13:18:02;2.70;;;1.63;;
18159;SDS011;9205;52.032;4.314;2022-10-17T13:20:30;1.50;;;1.20;;
18159;SDS011;9205;52.032;4.314;2022-10-17T13:22:58;1.97;;;1.33;;
18159;SDS011;9205;52.032;4.314;2022-10-17T13:25:27;2.43;;;1.10;;
18159;SDS011;9205;52.032;4.314;2022-10-17T13:28:10;1.70;;;1.40;;
18159;SDS011;9205;52.032;4.314;2022-10-17T13:30:38;2.10;;;1.27;;
18159;SDS011;9205;52.032;4.314;2022-10-17T13:33:16;2.73;;;1.30;;
18159;SDS011;9205;52.032;4.314;2022-10-17T13:35:57;1.37;;;1.27;;
18159;SDS011;9205;52.032;4.314;2022-10-17T13:38:26;2.50;;;1.43;;
18159;SDS011;9205;52.032;4.314;2022-10-17T13:40:59;3.50;;;1.80;;
18159;SDS011;9205;52.032;4.314;2022-10-17T13:43:28;2.47;;;1.27;;
18159;SDS011;9205;52.032;4.314;2022-10-17T13:45:59;3.10;;;1.13;;
18159;SDS011;9205;52.032;4.314;2022-10-17T13:48:30;3.27;;;1.60;;
18159;SDS011;9205;52.032;4.314;2022-10-17T13:51:03;2.30;;;1.43;;
18159;SDS011;9205;52.032;4.314;2022-10-17T13:53:33;1.80;;;1.20;;
18159;SDS011;9205;52.032;4.314;2022-10-17T13:56:14;1.70;;;1.40;;
18159;SDS011;9205;52.032;4.314;2022-10-17T13:58:45;4.23;;;1.77;;
18159;SDS011;9205;52.032;4.314;2022-10-17T14:01:15;4.23;;;1.40;;
18159;SDS011;9205;52.032;4.314;2022-10-17T14:03:44;2.80;;;1.70;;
18159;SDS011;9205;52.032;4.314;2022-10-17T14:06:14;2.63;;;1.33;;
18159;SDS011;9205;52.032;4.314;2022-10-17T14:08:49;1.80;;;1.40;;
18159;SDS011;9205;52.032;4.314;2022-10-17T14:11:24;2.17;;;1.40;;
18159;SDS011;9205;52.032;4.314;2022-10-17T14:13:58;2.00;;;1.50;;
18159;SDS011;9205;52.032;4.314;2022-10-17T14:16:32;2.30;;;1.33;;
18159;SDS011;9205;52.032;4.314;2022-10-17T14:19:03;2.50;;;1.30;;
18159;SDS011;9205;52.032;4.314;2022-10-17T14:21:39;1.93;;;1.23;;
18159;SDS011;9205;52.032;4.314;2022-10-17T14:24:25;2.43;;;1.23;;
18159;SDS011;9205;52.032;4.314;2022-10-17T14:26:57;1.77;;;1.27;;
18159;SDS011;9205;52.032;4.314;2022-10-17T14:29:26;4.10;;;1.43;;
18159;SDS011;9205;52.032;4.314;2022-10-17T14:32:14;4.03;;;1.33;;
18159;SDS011;9205;52.032;4.314;2022-10-17T14:34:43;2.03;;;1.30;;
18159;SDS011;9205;52.032;4.314;2022-10-17T14:37:17;2.03;;;1.30;;
18159;SDS011;9205;52.032;4.314;2022-10-17T14:39:57;3.10;;;1.47;;
18159;SDS011;9205;52.032;4.314;2022-10-17T14:42:27;3.27;;;1.40;;
18159;SDS011;9205;52.032;4.314;2022-10-17T14:44:57;2.57;;;1.30;;
18159;SDS011;9205;52.032;4.314;2022-10-17T14:47:33;5.60;;;1.80;;
18159;SDS011;9205;52.032;4.314;2022-10-17T14:50:02;1.87;;;1.30;;
18159;SDS011;9205;52.032;4.314;2022-10-17T14:52:33;2.63;;;1.43;;
18159;SDS011;9205;52.032;4.314;2022-10-17T14:55:15;3.13;;;1.57;;
18159;SDS011;9205;52.032;4.314;2022-10-17T14:57:50;2.50;;;1.70;;
18159;SDS011;9205;52.032;4.314;2022-10-17T15:00:18;2.27;;;1.40;;
18159;SDS011;9205;52.032;4.314;2022-10-17T15:02:47;4.50;;;1.33;;
18159;SDS011;9205;52.032;4.314;2022-10-17T15:05:17;2.43;;;1.33;;
18159;SDS011;9205;52.032;4.314;2022-10-17T15:07:47;2.13;;;1.23;;
18159;SDS011;9205;52.032;4.314;2022-10-17T15:10:27;2.73;;;1.37;;
18159;SDS011;9205;52.032;4.314;2022-10-17T15:13:00;3.10;;;1.40;;
18159;SDS011;9205;52.032;4.314;2022-10-17T15:15:29;2.60;;;1.40;;
18159;SDS011;9205;52.032;4.314;2022-10-17T15:17:57;2.87;;;1.40;;
18159;SDS011;9205;52.032;4.314;2022-10-17T15:20:26;1.70;;;1.20;;
18159;SDS011;9205;52.032;4.314;2022-10-17T15:22:55;1.63;;;1.33;;
18159;SDS011;9205;52.032;4.314;2022-10-17T15:25:24;1.83;;;1.33;;
18159;SDS011;9205;52.032;4.314;2022-10-17T15:27:54;2.63;;;1.40;;
18159;SDS011;9205;52.032;4.314;2022-10-17T15:30:26;3.30;;;1.33;;
18159;SDS011;9205;52.032;4.314;2022-10-17T15:32:56;6.17;;;1.67;;
18159;SDS011;9205;52.032;4.314;2022-10-17T15:35:24;4.30;;;1.50;;
18159;SDS011;9205;52.032;4.314;2022-10-17T15:37:53;4.17;;;1.40;;
18159;SDS011;9205;52.032;4.314;2022-10-17T15:40:21;3.20;;;1.10;;
18159;SDS011;9205;52.032;4.314;2022-10-17T15:42:52;2.23;;;1.10;;
18159;SDS011;9205;52.032;4.314;2022-10-17T15:45:20;2.73;;;1.40;;
18159;SDS011;9205;52.032;4.314;2022-10-17T15:47:51;4.23;;;1.47;;
18159;SDS011;9205;52.032;4.314;2022-10-17T15:50:24;2.53;;;1.30;;
18159;SDS011;9205;52.032;4.314;2022-10-17T15:52:54;1.20;;;1.10;;
18159;SDS011;9205;52.032;4.314;2022-10-17T15:55:21;1.57;;;1.10;;
18159;SDS011;9205;52.032;4.314;2022-10-17T15:57:49;1.80;;;1.10;;
18159;SDS011;9205;52.032;4.314;2022-10-17T16:00:17;2.63;;;1.30;;
18159;SDS011;9205;52.032;4.314;2022-10-17T16:02:47;1.37;;;1.00;;